Huvudsida
METAR-TAF:

METAR-TAF

Flygplatser :

Riyadh, Saudiarabien

latitud: 24-43N, longitud: 046-44E, höjd: 635 m

Aktuellt väderrapport

Denna rapport gjordes för 2 timmar och 54 minuter sedan, klockan 11:00 UTC
Vind 6 kt från ost
Temperatur 25°C
Fuktighet 39%
Tryck 1018 hPa
Sikt 10 km eller mer
Spridda moln på en höjd av 4000 ft
Brutna moln på en höjd av 8000 ft

METAR: OERY 121100Z 10006KT 9999 SCT040 BKN080 25/10 Q1018

Tid: 16:54 (13:54 UTC)

Väderprognos

Denna rapport gjordes för 2 timmar och 54 minuter sedan, klockan 11:00 UTC
Prognos gäller från 12 kl. 12 UTC till 13 kl. 18 UTC
Vind 15 kt från ost
Sikt: 7000 m
Få moln på en höjd av 4000 ft
Spridda moln på en höjd av 10000 ft
Blir
från 12 kl. 20 UTC till 12 kl. 22 UTC
Vind 3 kt varierande vindriktning

TAF: OERY 121100Z 1212/1318 09015KT 7000 FEW040 SCT100 BECMG 1220/1222 VRB03KT

Aktuella väderrapporter och prognoser från 4000 flygplatser (METAR- och TAF-rapporter).

De tillgängliga stationerna syns som gula och röda prickar på kartan.

För musen över prickarna för att se namnen på stationerna.

Klicka sedan för att få väderrapporter och prognoser.

För att ändra kartan: Klicka på de gröna knapparna med ett svart kors på för att zooma in; den gröna knappen med ett streck på för att zooma ut; eller på de gröna pilarna för angränsande kartor.


METAR-TAF: